Aérodrome :







RETROUVEZ-NOUS SUR...

 
LOGIN :

S'inscrire | Disclaimer

   EN    FR    IT 

 









Légende :    VFR   VFR Marginal   IFR   IFR Intensif   IFR Très Intensif
Visi : 
Plafond : 
>= 8 km
>= 3000ft
5 à 8 km
1000 à 3000 ft
1500m à 5 km
500 à 1000 ft
800 à 1500m
200 à 500 ft
< 800m
< 200 ft
Symboles :   Orages  Brouillard  Fortes neiges  Fortes précipitations  Vent > 20 kt






- Altitude de l'aérodrome : 477 ft
- Code IATA : YHZ


CYHZ - Halifax Stanfield Int.

DERNIER METAR :
  • 180300Z 33023G30KT 15SM BKN021 M17/M20 A3016 RMK SC5 SLP226

METARs EXPIRÉS :
  • 180200Z 32025G31KT 15SM OVC021 M15/M18 A3014 RMK SC8 SLP221
  • 180100Z 32025G33KT 15SM OVC025 M15/M18 A3013 RMK SC8 SLP215

TAF TAF CYHZ
Valide du 18 à 03h jusqu'au 19 à 00h UTC


180239Z 1803/1824 33025G35KT P6SM OVC025
TEMPO 1803/1804 2SM -SN BLSN OVC015
FM180400 32020G30KT P6SM FEW040
BECMG 1808/1810 32015G25KT
BECMG 1817/1819 32012G22KT
FM182100 34010KT P6SM FEW040 FEW120
BECMG 1822/1824 VRB03KT RMK NXT FCST BY 180600Z



MET'MAP, la Météo Aéronautique d'un coup d'oeil ! - Copyright ORBIFLY Décembre 2007 - Disclaimer

ORBIFLY MET'MAP TEAM :

Programmation & Développement : Alexandra Zaïnal
Sur une idée originale de : Baudouin d'Aumeries
Assistance à la programmation : Marc-Olivier Méhu
Soutien technique & logistique : Manuel Goepfert

Contact : metmap@orbifly.com




SOURCES & CREDITS :

   NOAA